createdAt,value
2022-10-07T00:02:15.036Z,99732.52
2022-10-07T00:04:46.361Z,99728.52
2022-10-07T00:07:13.446Z,99728.34
2022-10-07T00:09:39.971Z,99725.13
2022-10-07T00:12:07.029Z,99727.19
2022-10-07T00:14:33.693Z,99725.43
2022-10-07T00:17:00.262Z,99727.08
2022-10-07T00:19:27.252Z,99728.39
2022-10-07T00:21:53.969Z,99726.02
2022-10-07T00:24:20.438Z,99722.54
2022-10-07T00:26:47.178Z,99722.71
2022-10-07T00:29:13.890Z,99722.45
2022-10-07T00:31:41.737Z,99715.71
2022-10-07T00:34:08.422Z,99716.92
2022-10-07T00:36:36.904Z,99709.85
2022-10-07T00:39:08.954Z,99710.21
2022-10-07T00:41:37.897Z,99714.60
2022-10-07T00:44:32.469Z,99712.89
2022-10-07T00:46:59.973Z,99710.75
2022-10-07T00:49:27.397Z,99710.90
2022-10-07T00:51:54.063Z,99710.63
2022-10-07T00:54:20.813Z,99704.05
2022-10-07T00:56:47.386Z,99701.21
2022-10-07T00:59:14.233Z,99696.81
2022-10-07T01:01:42.468Z,99693.45
2022-10-07T01:04:09.999Z,99697.02
2022-10-07T01:06:39.342Z,99696.24
2022-10-07T01:09:09.792Z,99696.16
2022-10-07T01:11:59.272Z,99689.06
2022-10-07T01:14:53.636Z,99688.05
2022-10-07T01:17:28.017Z,99689.86
2022-10-07T01:20:00.682Z,99687.30
2022-10-07T01:22:55.169Z,99686.89
2022-10-07T01:25:33.825Z,99679.36
2022-10-07T01:28:13.409Z,99676.02
2022-10-07T01:30:42.108Z,99680.35
2022-10-07T01:33:15.005Z,99679.13
2022-10-07T01:35:42.951Z,99678.09
2022-10-07T01:38:09.884Z,99676.34
2022-10-07T01:40:40.890Z,99673.94
2022-10-07T01:43:07.692Z,99668.96
2022-10-07T01:45:35.506Z,99668.85
2022-10-07T01:48:02.355Z,99668.04
2022-10-07T01:50:29.150Z,99665.67
2022-10-07T01:53:41.069Z,99665.90
2022-10-07T01:56:21.325Z,99664.42
2022-10-07T01:58:50.841Z,99660.28
2022-10-07T02:02:04.424Z,99660.51
2022-10-07T02:04:33.692Z,99651.15
2022-10-07T02:07:17.236Z,99648.20
2022-10-07T02:09:50.316Z,99648.92
2022-10-07T02:13:08.268Z,99646.64
2022-10-07T02:15:48.900Z,99644.08
2022-10-07T02:18:17.219Z,99647.30
2022-10-07T02:20:48.495Z,99647.61
2022-10-07T02:23:15.034Z,99642.58
2022-10-07T02:25:45.829Z,99639.62
2022-10-07T02:28:12.637Z,99643.86
2022-10-07T02:30:39.248Z,99643.50
2022-10-07T02:33:06.427Z,99640.64
2022-10-07T02:35:40.649Z,99639.38
2022-10-07T02:38:10.210Z,99641.82
2022-10-07T02:40:40.175Z,99641.05
2022-10-07T02:43:15.495Z,99635.45
2022-10-07T02:45:46.082Z,99637.36
2022-10-07T02:48:19.349Z,99633.27
2022-10-07T02:50:47.491Z,99631.39
2022-10-07T02:53:13.971Z,99627.35
2022-10-07T02:55:40.527Z,99627.88
2022-10-07T02:58:07.332Z,99623.89
2022-10-07T03:06:04.838Z,99623.52
2022-10-07T03:08:31.360Z,99622.61
2022-10-07T03:10:57.773Z,99619.95
2022-10-07T03:13:32.924Z,99621.84
2022-10-07T03:15:59.389Z,99622.42
2022-10-07T03:18:29.622Z,99621.64
2022-10-07T03:20:56.578Z,99617.86
2022-10-07T03:23:24.041Z,99619.12
2022-10-07T03:25:54.641Z,99618.95
2022-10-07T03:28:21.940Z,99615.73
2022-10-07T03:30:48.841Z,99610.52
2022-10-07T03:33:16.377Z,99608.89
2022-10-07T03:35:42.838Z,99612.19
2022-10-07T03:38:10.653Z,99608.75
2022-10-07T03:40:38.257Z,99604.21
2022-10-07T03:43:05.459Z,99603.73
2022-10-07T03:45:32.031Z,99604.51
2022-10-07T03:47:59.432Z,99601.79
2022-10-07T03:50:26.203Z,99602.44
2022-10-07T03:52:52.783Z,99601.71
2022-10-07T03:55:19.920Z,99594.98
2022-10-07T03:57:57.078Z,99592.50
2022-10-07T04:00:26.633Z,99588.42
2022-10-07T04:02:53.307Z,99587.46
2022-10-07T04:05:20.586Z,99587.48
2022-10-07T04:07:48.146Z,99589.30
2022-10-07T04:10:16.761Z,99586.21
2022-10-07T04:12:43.973Z,99583.57
2022-10-07T04:15:14.020Z,99578.52
2022-10-07T04:17:41.397Z,99580.23
2022-10-07T04:20:08.531Z,99574.94
2022-10-07T04:22:35.632Z,99575.78
2022-10-07T04:25:21.417Z,99572.23
2022-10-07T04:27:54.687Z,99575.77
2022-10-07T04:30:21.520Z,99569.80
2022-10-07T04:32:50.645Z,99570.45
2022-10-07T04:35:18.266Z,99570.91
2022-10-07T04:37:44.942Z,99568.77
2022-10-07T04:40:11.674Z,99567.93
2022-10-07T04:42:57.185Z,99570.53
2022-10-07T04:45:23.624Z,99566.33
2022-10-07T04:47:51.615Z,99566.08
2022-10-07T04:50:18.148Z,99560.45
2022-10-07T04:52:44.686Z,99562.59
2022-10-07T04:55:14.398Z,99562.86
2022-10-07T04:57:41.321Z,99558.92
2022-10-07T05:00:08.833Z,99554.70
2022-10-07T05:02:35.783Z,99557.09
2022-10-07T05:05:02.353Z,99557.20
2022-10-07T05:07:28.793Z,99554.37
2022-10-07T05:09:55.379Z,99560.23
2022-10-07T05:12:21.909Z,99557.59
2022-10-07T05:14:48.422Z,99555.17
2022-10-07T05:17:15.071Z,99551.06
2022-10-07T05:19:41.589Z,99546.04
2022-10-07T05:22:08.054Z,99545.73
2022-10-07T05:24:34.792Z,99542.77
2022-10-07T05:27:01.886Z,99538.49
2022-10-07T05:29:28.356Z,99537.70
2022-10-07T05:31:55.007Z,99534.60
2022-10-07T05:34:21.648Z,99533.23
2022-10-07T05:36:48.185Z,99531.23
2022-10-07T05:39:14.678Z,99530.69
2022-10-07T05:41:45.603Z,99526.14
2022-10-07T05:44:12.432Z,99522.35
2022-10-07T05:46:40.235Z,99524.19
2022-10-07T05:49:06.869Z,99520.84
2022-10-07T05:51:33.447Z,99516.23
2022-10-07T05:54:00.046Z,99512.73
2022-10-07T05:56:26.604Z,99509.27
2022-10-07T05:58:53.194Z,99508.58
2022-10-07T06:01:23.605Z,99509.74
2022-10-07T06:03:57.529Z,99506.25
2022-10-07T06:06:24.522Z,99505.59
2022-10-07T06:08:51.306Z,99501.86
2022-10-07T06:11:37.130Z,99498.62
2022-10-07T06:14:03.997Z,99496.16
2022-10-07T06:16:30.709Z,99497.98
2022-10-07T06:18:57.534Z,99501.30
2022-10-07T06:21:28.613Z,99496.03
2022-10-07T06:23:55.708Z,99494.52
2022-10-07T06:26:22.707Z,99491.61
2022-10-07T06:28:49.395Z,99488.60
2022-10-07T06:31:17.726Z,99490.88
2022-10-07T06:33:44.461Z,99491.04
2022-10-07T06:36:12.273Z,99490.51
2022-10-07T06:38:41.354Z,99482.45
2022-10-07T06:41:08.933Z,99482.58
2022-10-07T06:43:35.377Z,99478.01
2022-10-07T06:46:03.731Z,99474.66
2022-10-07T06:48:32.338Z,99477.54
2022-10-07T06:50:59.144Z,99480.96
2022-10-07T06:53:25.944Z,99483.68
2022-10-07T06:55:54.828Z,99480.98
2022-10-07T06:58:22.127Z,99476.40
2022-10-07T07:00:50.246Z,99472.48
2022-10-07T07:03:17.420Z,99473.14
2022-10-07T07:05:45.789Z,99472.48
2022-10-07T07:08:15.896Z,99470.95
2022-10-07T07:10:43.121Z,99471.21
2022-10-07T07:13:09.915Z,99469.71
2022-10-07T07:15:36.630Z,99467.06
2022-10-07T07:18:04.282Z,99467.77
2022-10-07T07:20:35.841Z,99467.64
2022-10-07T07:23:02.905Z,99464.23
2022-10-07T07:25:29.482Z,99466.27
2022-10-07T07:27:58.693Z,99468.18
2022-10-07T07:30:25.461Z,99470.67
2022-10-07T07:32:52.157Z,99472.56
2022-10-07T07:35:18.579Z,99472.20
2022-10-07T07:37:46.174Z,99475.15
2022-10-07T07:40:13.166Z,99465.69
2022-10-07T07:42:39.808Z,99464.64
2022-10-07T07:45:08.859Z,99461.25
2022-10-07T07:47:35.995Z,99460.66
2022-10-07T07:50:03.805Z,99457.54
2022-10-07T07:52:30.509Z,99457.47
2022-10-07T07:54:59.195Z,99451.55
2022-10-07T07:57:26.909Z,99446.36
2022-10-07T07:59:54.705Z,99442.13
2022-10-07T08:02:22.362Z,99439.30
2022-10-07T08:04:49.195Z,99432.37
2022-10-07T08:07:16.200Z,99426.35
2022-10-07T08:09:43.186Z,99424.53
2022-10-07T08:12:09.645Z,99419.60
2022-10-07T08:14:37.909Z,99419.34
2022-10-07T08:17:04.443Z,99420.16
2022-10-07T08:19:30.861Z,99413.71
2022-10-07T08:21:58.213Z,99413.73
2022-10-07T08:24:28.021Z,99412.12
2022-10-07T08:26:54.581Z,99412.30
2022-10-07T08:29:21.817Z,99414.48
2022-10-07T08:31:49.253Z,99411.98
2022-10-07T08:34:15.701Z,99407.94
2022-10-07T08:36:47.197Z,99404.71
2022-10-07T08:39:14.552Z,99398.59
2022-10-07T08:42:08.710Z,99397.85
2022-10-07T08:44:40.223Z,99397.20
2022-10-07T08:47:16.249Z,99394.78
2022-10-07T08:49:44.888Z,99391.63
2022-10-07T08:52:42.478Z,99388.66
2022-10-07T08:55:20.389Z,99386.89
2022-10-07T08:58:04.394Z,99381.43
2022-10-07T09:00:50.736Z,99380.02
2022-10-07T09:03:44.681Z,99381.67
2022-10-07T09:06:26.466Z,99379.59
2022-10-07T09:08:57.287Z,99376.77
2022-10-07T09:11:25.920Z,99374.55
2022-10-07T09:13:54.911Z,99369.98
2022-10-07T09:16:43.218Z,99369.36
2022-10-07T09:19:16.931Z,99368.60
2022-10-07T09:21:53.934Z,99370.09
2022-10-07T09:24:23.369Z,99370.20
2022-10-07T09:26:56.065Z,99367.83
2022-10-07T09:29:24.483Z,99366.30
2022-10-07T09:31:50.961Z,99364.77
2022-10-07T09:34:26.336Z,99358.58
2022-10-07T09:37:12.123Z,99358.65
2022-10-07T09:39:39.277Z,99360.67
2022-10-07T09:42:06.810Z,99359.55
2022-10-07T09:44:33.224Z,99361.73
2022-10-07T09:47:00.078Z,99353.94
2022-10-07T09:49:29.572Z,99353.73
2022-10-07T09:52:24.766Z,99351.95
2022-10-07T09:54:52.886Z,99350.71
2022-10-07T09:57:23.575Z,99355.66
2022-10-07T09:59:50.360Z,99354.07
2022-10-07T10:02:24.408Z,99352.45
2022-10-07T10:04:53.278Z,99352.00
2022-10-07T10:07:27.436Z,99347.98
2022-10-07T10:09:55.463Z,99345.63
2022-10-07T10:12:22.363Z,99345.66
2022-10-07T10:14:56.503Z,99343.69
2022-10-07T10:17:34.785Z,99336.94
2022-10-07T10:20:26.346Z,99335.78
2022-10-07T10:22:52.918Z,99330.27
2022-10-07T10:25:50.669Z,99326.64
2022-10-07T10:28:39.371Z,99324.89
2022-10-07T10:31:22.867Z,99319.60
2022-10-07T10:34:06.850Z,99313.61
2022-10-07T10:36:33.452Z,99307.19
2022-10-07T10:39:03.753Z,99302.77
2022-10-07T10:41:42.329Z,99296.84
2022-10-07T10:44:39.747Z,99291.39
2022-10-07T10:47:33.809Z,99292.36
2022-10-07T10:50:29.013Z,99287.70
2022-10-07T10:53:20.812Z,99281.75
2022-10-07T10:56:05.467Z,99280.41
2022-10-07T10:58:43.289Z,99274.80
2022-10-07T11:01:19.158Z,99277.38
2022-10-07T11:04:09.851Z,99270.21
2022-10-07T11:06:37.180Z,99261.05
2022-10-07T11:09:03.880Z,99257.11
2022-10-07T11:11:30.537Z,99249.48
2022-10-07T11:14:09.390Z,99245.38
2022-10-07T11:16:44.897Z,99243.54
2022-10-07T11:19:27.039Z,99236.41
2022-10-07T11:21:54.113Z,99228.86
2022-10-07T11:24:25.276Z,99222.91
2022-10-07T11:26:58.972Z,99214.48
2022-10-07T11:29:44.207Z,99211.91
2022-10-07T11:32:17.727Z,99209.45
2022-10-07T11:34:54.337Z,99203.16
2022-10-07T11:37:43.784Z,99196.17
2022-10-07T11:40:10.239Z,99191.80
2022-10-07T11:42:40.497Z,99184.91
2022-10-07T11:45:08.371Z,99178.66
2022-10-07T11:47:36.633Z,99174.66
2022-10-07T11:50:07.835Z,99172.95
2022-10-07T11:52:38.152Z,99171.14
2022-10-07T11:55:05.813Z,99164.54
2022-10-07T11:57:34.646Z,99166.39
2022-10-07T12:00:08.401Z,99159.39
2022-10-07T12:02:43.149Z,99153.70
2022-10-07T12:05:35.860Z,99153.61
2022-10-07T12:08:18.237Z,99150.17
2022-10-07T12:10:44.840Z,99150.61
2022-10-07T12:13:11.478Z,99145.60
2022-10-07T12:15:40.055Z,99136.85
2022-10-07T12:18:06.728Z,99136.34
2022-10-07T12:20:51.446Z,99134.86
2022-10-07T12:23:22.327Z,99132.48
2022-10-07T12:26:00.780Z,99127.41
2022-10-07T12:28:37.694Z,99122.70
2022-10-07T12:31:16.624Z,99114.63
2022-10-07T12:33:46.666Z,99115.34
2022-10-07T12:36:22.285Z,99114.70
2022-10-07T12:38:58.870Z,99110.58
2022-10-07T12:41:32.892Z,99109.25
2022-10-07T12:44:23.517Z,99108.50
2022-10-07T12:46:56.509Z,99103.03
2022-10-07T12:49:30.408Z,99096.27
2022-10-07T12:51:59.437Z,99092.89
2022-10-07T12:54:33.272Z,99089.38
2022-10-07T12:57:00.586Z,99081.06
2022-10-07T12:59:48.639Z,99080.29
2022-10-07T13:02:43.768Z,99078.08
2022-10-07T13:05:48.739Z,99075.55
2022-10-07T13:08:36.142Z,99071.52
2022-10-07T13:11:30.158Z,99065.06
2022-10-07T13:14:10.880Z,99060.60
2022-10-07T13:16:39.795Z,99053.56
2022-10-07T13:19:06.256Z,99048.52
2022-10-07T13:21:44.290Z,99050.26
2022-10-07T13:24:15.119Z,99046.19
2022-10-07T13:26:43.546Z,99042.00
2022-10-07T13:29:39.418Z,99040.19
2022-10-07T13:32:09.856Z,99031.33
2022-10-07T13:34:36.342Z,99028.77
2022-10-07T13:37:03.017Z,99026.25
2022-10-07T13:39:30.755Z,99021.88
2022-10-07T13:41:58.633Z,99019.20
2022-10-07T13:44:27.813Z,99011.60
2022-10-07T13:47:05.122Z,99010.14
2022-10-07T13:49:37.702Z,99005.55
2022-10-07T13:52:06.996Z,99002.84
2022-10-07T13:54:33.848Z,99000.09
2022-10-07T13:57:02.523Z,98993.29
2022-10-07T13:59:29.177Z,98991.39
2022-10-07T14:01:58.301Z,98987.02
2022-10-07T14:04:33.798Z,98984.95
2022-10-07T14:07:12.473Z,98977.24
2022-10-07T14:09:49.225Z,98973.70
2022-10-07T14:12:21.439Z,98970.29
2022-10-07T14:14:49.445Z,98967.62
2022-10-07T14:17:39.706Z,98965.23
2022-10-07T14:20:16.102Z,98957.27
2022-10-07T14:22:43.232Z,98955.56
2022-10-07T14:25:28.034Z,98948.84
2022-10-07T14:27:55.566Z,98942.16
2022-10-07T14:30:55.554Z,98939.31
2022-10-07T14:33:59.003Z,98937.33
2022-10-07T14:36:25.710Z,98930.52
2022-10-07T14:38:52.556Z,98926.13
2022-10-07T14:41:21.533Z,98923.00
2022-10-07T14:43:49.370Z,98921.36
2022-10-07T14:46:18.673Z,98919.76
2022-10-07T14:48:46.150Z,98916.83
2022-10-07T14:51:13.230Z,98915.79
2022-10-07T14:53:40.685Z,98918.46
2022-10-07T14:56:07.483Z,98909.73
2022-10-07T14:58:34.447Z,98911.02
2022-10-07T15:01:01.162Z,98911.64
2022-10-07T15:03:29.762Z,98909.02
2022-10-07T15:05:56.251Z,98909.27
2022-10-07T15:08:22.665Z,98906.30
2022-10-07T15:10:49.285Z,98903.24
2022-10-07T15:13:15.831Z,98902.14
2022-10-07T15:15:42.887Z,98902.23
2022-10-07T15:18:11.763Z,98901.46
2022-10-07T15:20:39.552Z,98898.39
2022-10-07T15:23:09.379Z,98896.88
2022-10-07T15:25:36.283Z,98894.74
2022-10-07T15:28:02.890Z,98888.61
2022-10-07T15:30:29.871Z,98889.02
2022-10-07T15:32:57.860Z,98887.81
2022-10-07T15:35:25.007Z,98886.01
2022-10-07T15:37:51.572Z,98884.14
2022-10-07T15:40:18.333Z,98884.83
2022-10-07T15:42:45.380Z,98881.02
2022-10-07T15:45:12.413Z,98880.56
2022-10-07T15:47:39.349Z,98878.02
2022-10-07T15:50:06.502Z,98880.23
2022-10-07T15:52:33.342Z,98881.85
2022-10-07T15:55:03.719Z,98885.00
2022-10-07T15:57:33.029Z,98884.64
2022-10-07T15:59:59.912Z,98882.51
2022-10-07T16:02:26.540Z,98879.63
2022-10-07T16:04:52.995Z,98878.48
2022-10-07T16:07:19.454Z,98877.31
2022-10-07T16:09:46.419Z,98879.27
2022-10-07T16:12:13.554Z,98876.98
2022-10-07T16:14:40.439Z,98878.88
2022-10-07T16:17:06.992Z,98878.54
2022-10-07T16:19:33.615Z,98873.42
2022-10-07T16:22:00.114Z,98872.58
2022-10-07T16:24:29.020Z,98870.82
2022-10-07T16:26:58.862Z,98870.23
2022-10-07T16:29:44.066Z,98871.70
2022-10-07T16:32:10.864Z,98865.41
2022-10-07T16:34:38.822Z,98867.40
2022-10-07T16:37:06.174Z,98869.35
2022-10-07T16:39:32.628Z,98869.18
2022-10-07T16:42:00.043Z,98866.23
2022-10-07T16:44:27.916Z,98866.14
2022-10-07T16:46:56.918Z,98862.02
2022-10-07T16:49:25.924Z,98862.52
2022-10-07T16:51:53.185Z,98865.88
2022-10-07T16:54:19.878Z,98861.95
2022-10-07T16:56:48.209Z,98864.56
2022-10-07T16:59:22.470Z,98861.84
2022-10-07T17:01:55.416Z,98857.81
2022-10-07T17:04:22.312Z,98857.89
2022-10-07T17:06:49.221Z,98854.37
2022-10-07T17:09:17.421Z,98853.14
2022-10-07T17:11:44.515Z,98851.52
2022-10-07T17:14:16.363Z,98853.27
2022-10-07T17:16:44.861Z,98849.70
2022-10-07T17:19:17.687Z,98850.23
2022-10-07T17:21:45.607Z,98852.16
2022-10-07T17:24:13.173Z,98850.22
2022-10-07T17:26:40.397Z,98851.59
2022-10-07T17:29:08.455Z,98848.83
2022-10-07T17:31:36.504Z,98849.55
2022-10-07T17:34:06.271Z,98846.45
2022-10-07T17:36:34.413Z,98846.24
2022-10-07T17:39:00.969Z,98845.73
2022-10-07T17:41:34.854Z,98846.91
2022-10-07T17:44:02.408Z,98849.31
2022-10-07T17:46:31.456Z,98848.61
2022-10-07T17:48:59.343Z,98847.80
2022-10-07T17:51:28.189Z,98847.59
2022-10-07T17:53:55.313Z,98844.75
2022-10-07T17:56:22.650Z,98842.73
2022-10-07T17:58:49.204Z,98838.02
2022-10-07T18:01:19.085Z,98834.28
2022-10-07T18:03:53.401Z,98835.80
2022-10-07T18:06:20.351Z,98834.28
2022-10-07T18:08:48.016Z,98836.44
2022-10-07T18:11:16.060Z,98829.66
2022-10-07T18:14:01.164Z,98830.13
2022-10-07T18:16:27.926Z,98829.25
2022-10-07T18:18:55.208Z,98823.56
2022-10-07T18:21:22.496Z,98824.08
2022-10-07T18:23:50.545Z,98823.81
2022-10-07T18:26:17.312Z,98821.11
2022-10-07T18:28:44.064Z,98820.02
2022-10-07T18:31:12.054Z,98820.41
2022-10-07T18:33:39.231Z,98817.73
2022-10-07T18:36:10.529Z,98814.55
2022-10-07T18:38:39.332Z,98810.82
2022-10-07T18:41:07.216Z,98812.11
2022-10-07T18:43:33.735Z,98806.79
2022-10-07T18:46:08.654Z,98809.91
2022-10-07T18:48:36.392Z,98805.39
2022-10-07T18:51:03.060Z,98798.85
2022-10-07T18:53:34.196Z,98798.54
2022-10-07T18:56:04.685Z,98799.83
2022-10-07T18:58:38.782Z,98797.03
2022-10-07T19:01:08.912Z,98794.58
2022-10-07T19:03:35.527Z,98792.88
2022-10-07T19:06:06.324Z,98792.58
2022-10-07T19:08:33.070Z,98790.92
2022-10-07T19:11:06.456Z,98789.34
2022-10-07T19:13:48.901Z,98787.94
2022-10-07T19:16:23.105Z,98787.31
2022-10-07T19:18:51.536Z,98790.98
2022-10-07T19:21:19.987Z,98788.77
2022-10-07T19:23:50.679Z,98790.46
2022-10-07T19:26:21.383Z,98789.06
2022-10-07T19:28:48.960Z,98789.03
2022-10-07T19:31:20.015Z,98788.61
2022-10-07T19:33:47.163Z,98789.40
2022-10-07T19:36:14.113Z,98783.63
2022-10-07T19:38:44.191Z,98781.96
2022-10-07T19:41:12.308Z,98783.21
2022-10-07T19:43:39.579Z,98782.06
2022-10-07T19:46:06.501Z,98781.08
2022-10-07T19:48:33.781Z,98782.36
2022-10-07T19:51:01.353Z,98777.52
2022-10-07T19:53:33.970Z,98782.12
2022-10-07T19:56:17.311Z,98781.21
2022-10-07T19:58:48.931Z,98781.17
2022-10-07T20:01:21.366Z,98776.92
2022-10-07T20:03:48.853Z,98777.68
2022-10-07T20:06:15.815Z,98773.10
2022-10-07T20:08:43.827Z,98772.76
2022-10-07T20:11:10.761Z,98772.90
2022-10-07T20:13:37.908Z,98777.11
2022-10-07T20:16:14.906Z,98777.14
2022-10-07T20:18:41.522Z,98780.53
2022-10-07T20:21:11.336Z,98772.29
2022-10-07T20:23:40.383Z,98774.64
2022-10-07T20:26:27.198Z,98775.35
2022-10-07T20:28:55.569Z,98774.75
2022-10-07T20:31:23.385Z,98769.47
2022-10-07T20:33:51.624Z,98768.87
2022-10-07T20:36:19.915Z,98767.33
2022-10-07T20:39:05.616Z,98764.03
2022-10-07T20:41:50.842Z,98765.19
2022-10-07T20:44:17.712Z,98765.20
2022-10-07T20:46:44.397Z,98764.16
2022-10-07T20:49:23.148Z,98766.84
2022-10-07T20:51:53.203Z,98770.41
2022-10-07T20:54:20.346Z,98768.13
2022-10-07T20:56:47.448Z,98765.13
2022-10-07T20:59:14.268Z,98767.80
2022-10-07T21:01:40.885Z,98766.06
2022-10-07T21:04:08.267Z,98765.64
2022-10-07T21:06:34.799Z,98765.28
2022-10-07T21:09:01.368Z,98760.84
2022-10-07T21:11:28.018Z,98763.27
2022-10-07T21:13:57.381Z,98766.42
2022-10-07T21:16:24.482Z,98766.23
2022-10-07T21:18:51.297Z,98767.86
2022-10-07T21:21:18.190Z,98770.17
2022-10-07T21:23:45.536Z,98766.43
2022-10-07T21:26:12.438Z,98763.13
2022-10-07T21:28:39.508Z,98762.36
2022-10-07T21:31:08.606Z,98762.20
2022-10-07T21:33:36.436Z,98758.64
2022-10-07T21:36:04.251Z,98755.80
2022-10-07T21:38:33.889Z,98756.13
2022-10-07T21:41:00.948Z,98754.30
2022-10-07T21:43:27.994Z,98755.20
2022-10-07T21:46:02.773Z,98754.16
2022-10-07T21:48:30.150Z,98751.89
2022-10-07T21:50:56.900Z,98747.69
2022-10-07T21:53:23.723Z,98742.61
2022-10-07T21:55:50.469Z,98742.70
2022-10-07T21:58:17.000Z,98740.89
2022-10-07T22:00:43.774Z,98738.13
2022-10-07T22:03:13.188Z,98738.27
2022-10-07T22:05:40.597Z,98734.41
2022-10-07T22:08:29.638Z,98732.57
2022-10-07T22:11:00.632Z,98729.12
2022-10-07T22:13:28.203Z,98726.00
2022-10-07T22:15:54.808Z,98721.80
2022-10-07T22:18:21.991Z,98725.27
2022-10-07T22:20:48.435Z,98721.70
2022-10-07T22:23:15.258Z,98721.09
2022-10-07T22:25:42.049Z,98716.09
2022-10-07T22:28:08.526Z,98715.84
2022-10-07T22:30:39.599Z,98713.08
2022-10-07T22:33:06.623Z,98708.85
2022-10-07T22:35:35.299Z,98708.29
2022-10-07T22:38:02.448Z,98706.69
2022-10-07T22:40:29.029Z,98706.73
2022-10-07T22:42:55.913Z,98703.16
2022-10-07T22:45:22.966Z,98702.69
2022-10-07T22:47:50.321Z,98701.84
2022-10-07T22:50:19.889Z,98701.23
2022-10-07T22:52:47.876Z,98699.63
2022-10-07T22:55:17.991Z,98697.98
2022-10-07T22:57:44.422Z,98696.55
2022-10-07T23:00:12.226Z,98697.29
2022-10-07T23:02:38.728Z,98694.61
2022-10-07T23:05:05.994Z,98695.86
2022-10-07T23:07:32.857Z,98693.58
2022-10-07T23:09:59.385Z,98693.01
2022-10-07T23:12:25.885Z,98690.86
2022-10-07T23:14:52.665Z,98689.02
2022-10-07T23:17:19.425Z,98689.77
2022-10-07T23:19:45.919Z,98685.02
2022-10-07T23:22:12.991Z,98682.90
2022-10-07T23:24:39.631Z,98679.28
2022-10-07T23:27:06.148Z,98677.94
2022-10-07T23:29:33.299Z,98677.98
2022-10-07T23:31:59.992Z,98674.27
2022-10-07T23:34:27.503Z,98676.50
2022-10-07T23:36:55.370Z,98671.60
2022-10-07T23:39:22.598Z,98672.96
2022-10-07T23:41:49.272Z,98674.08
2022-10-07T23:44:16.057Z,98675.08
2022-10-07T23:46:42.837Z,98673.84
2022-10-07T23:49:09.351Z,98666.98
2022-10-07T23:51:36.018Z,98667.52
2022-10-07T23:54:03.189Z,98665.59
2022-10-07T23:56:30.102Z,98666.89
2022-10-07T23:58:56.955Z,98666.84
